Time;durP1;ratioP1;P1;durP2;ratioP2;P2;SDS_P1;SDS_P2;PMS_P1;PMS_P2;Temp;Humidity;BMP_temperature;BMP_pressure;BME280_temperature;BME280_humidity;BME280_pressure;Samples;Min_cycle;Max_cycle;Signal;HPM_P1;HPM_P2
2023/01/12 00:02:14;;;;;;;8.65;3.33;;;;;;;;;;5068271;28;20041;-63
2023/01/12 00:04:48;;;;;;;;;;;;;;;;;;5035480;28;20056;-64
2023/01/12 00:07:19;;;;;;;6.57;1.50;;;;;;;;;;5035232;28;19920;-64
2023/01/12 00:09:49;;;;;;;5.85;1.75;;;;;;;;;;5068053;28;20060;-64
2023/01/12 00:12:19;;;;;;;9.90;1.83;;;;;;;;;;5051015;28;20059;-64
2023/01/12 00:14:50;;;;;;;9.15;1.23;;;;;;;;;;5017916;28;20048;-64
2023/01/12 00:17:21;;;;;;;4.32;1.48;;;;;;;;;;5047845;28;20071;-64
2023/01/12 00:19:53;;;;;;;7.82;1.50;;;;;;;;;;4994989;28;20041;-64
2023/01/12 00:22:23;;;;;;;6.15;1.27;;;;;;;;;;5027944;28;20543;-64
2023/01/12 00:24:54;;;;;;;5.70;1.30;;;;;;;;;;5027955;28;20065;-64
2023/01/12 00:27:24;;;;;;;3.67;1.15;;;;;;;;;;5047831;28;20516;-64
2023/01/12 00:29:54;;;;;;;5.20;1.65;;;;;;;;;;5014531;28;20060;-64
2023/01/12 00:32:26;;;;;;;7.53;1.83;;;;;;;;;;5048019;28;20056;-64
2023/01/12 00:34:56;;;;;;;3.63;1.35;;;;;;;;;;5047702;28;20049;-64
2023/01/12 00:37:26;;;;;;;4.68;1.50;;;;;;;;;;4998470;28;20079;-64
2023/01/12 00:39:56;;;;;;;2.95;1.13;;;;;;;;;;5048680;28;20061;-64
2023/01/12 00:45:22;;;;;;;4.75;1.50;;;;;;;;;;5051695;28;20049;-64
2023/01/12 00:47:53;;;;;;;5.30;1.80;;;;;;;;;;5035050;28;20064;-64
2023/01/12 00:50:23;;;;;;;5.20;1.67;;;;;;;;;;5002046;28;20057;-64
2023/01/12 00:52:53;;;;;;;5.32;1.50;;;;;;;;;;5001640;28;20057;-64
2023/01/12 00:55:23;;;;;;;6.03;2.08;;;;;;;;;;5051582;28;20053;-64
2023/01/12 00:57:54;;;;;;;5.40;1.98;;;;;;;;;;5017713;28;20059;-64
2023/01/12 01:00:24;;;;;;;;;;;;;;;;;;5071903;28;20419;-64
2023/01/12 01:02:54;;;;;;;7.95;2.22;;;;;;;;;;5071124;28;20052;-64
2023/01/12 01:05:24;;;;;;;10.38;2.50;;;;;;;;;;5071190;28;20071;-64
2023/01/12 01:07:56;;;;;;;5.03;2.50;;;;;;;;;;5071121;28;20056;-64
2023/01/12 01:10:26;;;;;;;5.68;1.80;;;;;;;;;;5071157;28;20065;-64
2023/01/12 01:12:56;;;;;;;9.45;2.03;;;;;;;;;;5071140;28;20059;-64
2023/01/12 01:15:26;;;;;;;7.88;2.03;;;;;;;;;;5021092;28;20060;-64
2023/01/12 01:17:56;;;;;;;4.28;1.98;;;;;;;;;;5054501;28;20516;-64
2023/01/12 01:20:26;;;;;;;4.30;1.60;;;;;;;;;;5070935;28;20056;-64
2023/01/12 01:22:56;;;;;;;4.45;1.88;;;;;;;;;;5071041;28;20044;-64
2023/01/12 01:25:26;;;;;;;4.90;1.98;;;;;;;;;;5054439;28;20056;-64
2023/01/12 01:27:56;;;;;;;7.32;2.20;;;;;;;;;;5054480;28;20049;-64
2023/01/12 01:30:26;;;;;;;7.25;2.10;;;;;;;;;;5070946;28;20052;-64
2023/01/12 01:32:56;;;;;;;5.85;1.50;;;;;;;;;;5071093;28;20082;-64
2023/01/12 01:35:25;;;;;;;6.25;1.65;;;;;;;;;;5070707;28;20048;-64
2023/01/12 01:37:55;;;;;;;8.38;1.73;;;;;;;;;;5073140;28;20055;-64
2023/01/12 01:40:25;;;;;;;5.43;1.90;;;;;;;;;;5073012;28;20416;-64
2023/01/12 01:42:56;;;;;;;3.40;1.60;;;;;;;;;;5071024;28;20056;-64
2023/01/12 01:45:26;;;;;;;5.32;1.50;;;;;;;;;;5054168;28;20056;-64
2023/01/12 01:48:00;;;;;;;4.35;1.80;;;;;;;;;;5072998;28;20048;-63
2023/01/12 01:50:37;;;;;;;3.50;1.60;;;;;;;;;;5072714;28;20068;-64
2023/01/12 01:53:17;;;;;;;5.03;2.35;;;;;;;;;;5069708;28;20419;-64
2023/01/12 01:55:52;;;;;;;5.22;1.38;;;;;;;;;;5072717;28;20047;-64
2023/01/12 01:58:37;;;;;;;6.45;1.30;;;;;;;;;;5054007;28;20048;-64
2023/01/12 02:01:08;;;;;;;4.05;1.38;;;;;;;;;;5072551;28;20044;-64
2023/01/12 02:03:40;;;;;;;5.82;2.15;;;;;;;;;;5049745;28;20041;-64
2023/01/12 02:06:11;;;;;;;6.85;1.92;;;;;;;;;;5033961;28;20057;-64
2023/01/12 02:09:26;;;;;;;10.80;2.60;;;;;;;;;;5016668;28;20076;-64
2023/01/12 02:18:14;;;;;;;9.30;2.08;;;;;;;;;;4990524;28;20482;-64
2023/01/12 02:20:59;;;;;;;5.85;2.05;;;;;;;;;;5006354;28;20054;-64
2023/01/12 02:24:14;;;;;;;4.82;2.10;;;;;;;;;;4990606;28;20071;-64
2023/01/12 02:27:17;;;;;;;5.10;2.13;;;;;;;;;;4988392;28;20050;-64
2023/01/12 02:30:08;;;;;;;7.10;2.05;;;;;;;;;;4990545;28;20552;-64
2023/01/12 02:33:16;;;;;;;5.00;1.98;;;;;;;;;;4990292;28;20058;-64
2023/01/12 02:35:54;;;;;;;6.68;2.10;;;;;;;;;;4988632;28;20399;-64
2023/01/12 02:38:35;;;;;;;5.38;1.45;;;;;;;;;;4957790;28;20069;-64
2023/01/12 02:42:39;;;;;;;6.70;1.90;;;;;;;;;;4982478;28;20057;-65
2023/01/12 02:44:32;;;;;;;4.82;2.08;;;;;;;;;;5009655;28;20057;-66
2023/01/12 02:47:06;;;;;;;8.95;2.53;;;;;;;;;;5048659;28;20800;-64
2023/01/12 02:49:43;;;;;;;5.72;2.25;;;;;;;;;;5049071;28;20053;-64
2023/01/12 02:52:15;;;;;;;4.80;1.70;;;;;;;;;;5061227;28;20060;-64
2023/01/12 02:54:48;;;;;;;5.13;1.90;;;;;;;;;;5006545;28;20048;-64
2023/01/12 02:57:21;;;;;;;5.60;1.90;;;;;;;;;;4976089;28;20052;-64
2023/01/12 02:59:53;;;;;;;13.02;2.17;;;;;;;;;;5092068;28;20502;-64
2023/01/12 03:02:26;;;;;;;4.75;1.70;;;;;;;;;;5055506;28;20526;-64
2023/01/12 03:04:56;;;;;;;5.95;1.83;;;;;;;;;;5056212;28;20079;-64
2023/01/12 03:08:10;;;;;;;3.72;1.70;;;;;;;;;;4999481;28;20060;-64
2023/01/12 03:10:55;;;;;;;3.63;1.42;;;;;;;;;;4989508;28;20046;-64
2023/01/12 03:13:28;;;;;;;2.85;1.27;;;;;;;;;;4957478;28;20057;-64
2023/01/12 03:16:00;;;;;;;5.55;1.50;;;;;;;;;;4973824;28;20073;-64
2023/01/12 03:18:54;;;;;;;4.68;1.40;;;;;;;;;;4989721;28;20447;-64
2023/01/12 03:21:55;;;;;;;1.95;1.17;;;;;;;;;;5005462;28;20062;-64
2023/01/12 03:24:33;;;;;;;4.93;1.52;;;;;;;;;;4989359;28;20050;-64
2023/01/12 03:27:14;;;;;;;7.05;1.63;;;;;;;;;;4957299;28;20058;-64
2023/01/12 03:29:53;;;;;;;3.00;1.30;;;;;;;;;;4989122;28;20458;-64
2023/01/12 03:32:24;;;;;;;5.70;1.60;;;;;;;;;;4989457;28;20058;-64
2023/01/12 03:34:56;;;;;;;3.05;1.20;;;;;;;;;;5005277;28;20054;-64
2023/01/12 03:38:10;;;;;;;3.90;1.23;;;;;;;;;;4973488;28;20061;-64
2023/01/12 03:40:48;;;;;;;3.85;1.30;;;;;;;;;;4865176;29;20052;-64
2023/01/12 03:43:27;;;;;;;4.63;1.60;;;;;;;;;;4912479;29;20123;-64
2023/01/12 03:46:09;;;;;;;3.40;1.30;;;;;;;;;;4945228;29;20059;-64
2023/01/12 03:48:45;;;;;;;3.72;1.50;;;;;;;;;;4928499;29;20062;-64
2023/01/12 03:51:24;;;;;;;3.65;1.20;;;;;;;;;;4931134;29;20428;-64
2023/01/12 03:53:56;;;;;;;;;;;;;;;;;;4931694;29;20192;-64
2023/01/12 03:56:31;;;;;;;5.28;1.40;;;;;;;;;;4899321;29;19929;-64
2023/01/12 03:59:03;;;;;;;7.15;1.73;;;;;;;;;;4884707;29;20424;-64
2023/01/12 04:01:33;;;;;;;5.63;1.52;;;;;;;;;;4915198;29;20652;-64
2023/01/12 04:04:03;;;;;;;6.03;2.08;;;;;;;;;;4931259;29;20070;-65
2023/01/12 04:06:33;;;;;;;2.65;1.50;;;;;;;;;;4931539;29;20060;-64
2023/01/12 04:09:03;;;;;;;3.67;1.70;;;;;;;;;;4900248;29;20428;-64
2023/01/12 04:14:22;;;;;;;3.03;1.40;;;;;;;;;;4931176;29;20193;-64
2023/01/12 04:16:52;;;;;;;5.88;1.58;;;;;;;;;;4945504;28;20058;-64
2023/01/12 04:19:22;;;;;;;3.35;1.30;;;;;;;;;;5052358;28;20056;-64
2023/01/12 04:24:41;;;;;;;2.22;1.30;;;;;;;;;;5051615;28;20041;-64
2023/01/12 04:27:12;;;;;;;4.55;1.67;;;;;;;;;;5019027;28;20512;-63
2023/01/12 04:29:42;;;;;;;4.72;1.38;;;;;;;;;;5052002;28;20064;-64
2023/01/12 04:32:13;;;;;;;6.78;1.50;;;;;;;;;;5052028;28;20049;-64
2023/01/12 04:34:43;;;;;;;3.13;1.80;;;;;;;;;;5012122;28;20046;-64
2023/01/12 04:37:14;;;;;;;4.45;1.73;;;;;;;;;;4995579;28;20049;-64
2023/01/12 04:39:44;;;;;;;5.78;1.75;;;;;;;;;;4992224;28;20042;-64
2023/01/12 04:45:03;;;;;;;3.08;1.40;;;;;;;;;;4944210;28;20058;-65
2023/01/12 04:47:33;;;;;;;5.13;1.70;;;;;;;;;;4992170;28;20061;-65
2023/01/12 04:50:04;;;;;;;3.90;1.90;;;;;;;;;;4959970;28;20058;-65
2023/01/12 04:52:34;;;;;;;3.60;1.38;;;;;;;;;;5008333;28;20469;-65
2023/01/12 04:55:06;;;;;;;3.13;1.65;;;;;;;;;;4992269;28;20051;-65
2023/01/12 04:57:36;;;;;;;5.10;1.80;;;;;;;;;;4992140;28;20058;-65
2023/01/12 05:00:07;;;;;;;4.38;1.70;;;;;;;;;;4992027;28;20511;-64
2023/01/12 05:02:37;;;;;;;3.33;1.55;;;;;;;;;;5004103;28;20061;-65
2023/01/12 05:05:08;;;;;;;4.70;1.40;;;;;;;;;;5011535;28;20418;-65
2023/01/12 05:10:21;;;;;;;5.35;1.60;;;;;;;;;;4979824;28;20054;-65
2023/01/12 05:10:28;;;;;;;5.53;1.50;;;;;;;;;;5011324;28;20062;-64
2023/01/12 05:12:58;;;;;;;4.80;1.38;;;;;;;;;;5041452;28;20064;-64
2023/01/12 05:15:29;;;;;;;6.68;1.75;;;;;;;;;;5018070;28;20060;-64
2023/01/12 05:18:00;;;;;;;6.43;1.52;;;;;;;;;;5083219;28;20420;-64
2023/01/12 05:20:31;;;;;;;4.22;1.35;;;;;;;;;;5014648;28;20053;-64
2023/01/12 05:23:01;;;;;;;3.05;1.45;;;;;;;;;;5014499;28;20102;-64
2023/01/12 05:25:31;;;;;;;6.88;1.50;;;;;;;;;;5030527;28;20049;-64
2023/01/12 05:28:02;;;;;;;4.13;1.83;;;;;;;;;;5030857;28;20056;-64
2023/01/12 05:30:32;;;;;;;6.05;1.80;;;;;;;;;;5030942;28;20081;-63
2023/01/12 05:33:02;;;;;;;3.92;1.55;;;;;;;;;;5030958;28;20068;-64
2023/01/12 05:35:32;;;;;;;4.35;1.55;;;;;;;;;;4997916;28;20476;-64
2023/01/12 05:38:02;;;;;;;4.25;1.98;;;;;;;;;;5014361;28;20061;-64
2023/01/12 05:40:31;;;;;;;3.78;1.40;;;;;;;;;;5030775;28;20053;-64
2023/01/12 05:45:50;;;;;;;7.28;1.63;;;;;;;;;;5030389;28;20061;-64
2023/01/12 05:48:20;;;;;;;3.40;1.45;;;;;;;;;;4998760;28;20493;-65
2023/01/12 05:50:52;;;;;;;5.70;1.42;;;;;;;;;;5030361;28;20049;-64
2023/01/12 05:53:22;;;;;;;3.90;1.50;;;;;;;;;;5030559;28;20417;-64
2023/01/12 05:55:52;;;;;;;7.03;1.50;;;;;;;;;;5030876;28;20053;-63
2023/01/12 05:58:23;;;;;;;3.40;1.45;;;;;;;;;;5040924;28;20641;-63
2023/01/12 06:00:53;;;;;;;4.85;1.52;;;;;;;;;;5093285;28;20044;-64
2023/01/12 06:03:23;;;;;;;7.28;1.60;;;;;;;;;;5093097;28;20047;-64
2023/01/12 06:05:57;;;;;;;4.10;1.50;;;;;;;;;;5023875;28;20056;-64
2023/01/12 06:08:27;;;;;;;3.67;1.52;;;;;;;;;;5093103;28;20044;-65
2023/01/12 06:11:02;;;;;;;4.72;1.52;;;;;;;;;;5057028;28;20060;-64
2023/01/12 06:16:20;;;;;;;5.82;1.50;;;;;;;;;;5092673;28;20043;-64
2023/01/12 06:18:50;;;;;;;4.65;1.60;;;;;;;;;;5092777;28;20396;-64
2023/01/12 06:21:21;;;;;;;4.82;1.55;;;;;;;;;;4996416;28;20097;-64
2023/01/12 06:23:51;;;;;;;4.05;1.40;;;;;;;;;;5029999;28;20053;-64
2023/01/12 06:26:21;;;;;;;8.20;1.90;;;;;;;;;;5029980;28;20054;-63
2023/01/12 06:28:50;;;;;;;3.75;1.70;;;;;;;;;;4990194;28;20050;-64
2023/01/12 06:31:20;;;;;;;6.97;1.77;;;;;;;;;;4990263;28;20062;-64
2023/01/12 06:33:50;;;;;;;5.38;1.73;;;;;;;;;;4990221;28;20057;-64
2023/01/12 06:36:20;;;;;;;6.28;1.90;;;;;;;;;;4957860;28;20474;-63
2023/01/12 06:38:50;;;;;;;2.45;1.38;;;;;;;;;;4958097;28;20169;-64
2023/01/12 06:44:09;;;;;;;4.03;1.50;;;;;;;;;;4990399;28;20058;-63
2023/01/12 06:46:39;;;;;;;3.00;1.40;;;;;;;;;;4990006;28;20066;-64
2023/01/12 06:49:09;;;;;;;4.72;2.22;;;;;;;;;;4989835;28;20061;-65
2023/01/12 06:51:39;;;;;;;7.03;1.80;;;;;;;;;;4989898;28;20066;-65
2023/01/12 06:54:09;;;;;;;2.42;1.33;;;;;;;;;;4941067;28;20069;-65
2023/01/12 06:56:39;;;;;;;7.35;1.40;;;;;;;;;;4919015;29;20067;-64
2023/01/12 06:59:11;;;;;;;3.90;1.40;;;;;;;;;;4930487;28;20054;-65
2023/01/12 07:01:41;;;;;;;2.33;1.25;;;;;;;;;;4970449;28;20059;-65
2023/01/12 07:04:12;;;;;;;5.57;1.80;;;;;;;;;;4939224;28;20411;-64
2023/01/12 07:06:42;;;;;;;3.65;1.35;;;;;;;;;;4973247;28;20050;-65
2023/01/12 07:09:12;;;;;;;4.82;2.03;;;;;;;;;;4957203;28;20046;-64
2023/01/12 07:11:42;;;;;;;3.72;1.80;;;;;;;;;;4989391;28;20062;-65
2023/01/12 07:14:12;;;;;;;6.13;1.77;;;;;;;;;;4989470;28;20050;-65
2023/01/12 07:16:42;;;;;;;5.68;1.50;;;;;;;;;;4989623;28;20049;-65
2023/01/12 07:19:12;;;;;;;3.25;1.50;;;;;;;;;;4989553;28;20054;-65
2023/01/12 07:21:43;;;;;;;4.57;1.40;;;;;;;;;;4957012;28;20058;-65
2023/01/12 07:24:12;;;;;;;3.75;1.50;;;;;;;;;;4989507;28;20065;-65
2023/01/12 07:26:42;;;;;;;4.53;1.38;;;;;;;;;;4998574;28;20057;-65
2023/01/12 07:29:12;;;;;;;3.55;1.33;;;;;;;;;;4969977;28;20059;-63
2023/01/12 07:31:44;;;;;;;4.65;1.70;;;;;;;;;;4953664;28;20156;-64
2023/01/12 07:34:14;;;;;;;4.47;1.52;;;;;;;;;;4988546;28;20054;-64
2023/01/12 07:36:48;;;;;;;4.32;1.70;;;;;;;;;;5008917;28;20054;-65
2023/01/12 07:39:18;;;;;;;7.82;1.52;;;;;;;;;;4929276;28;20481;-64
2023/01/12 07:44:39;;;;;;;3.55;1.33;;;;;;;;;;5020545;28;20058;-64
2023/01/12 07:47:09;;;;;;;2.50;1.55;;;;;;;;;;5028399;28;20061;-64
2023/01/12 07:49:38;;;;;;;3.70;1.70;;;;;;;;;;4968968;28;20055;-65
2023/01/12 07:52:11;;;;;;;2.80;1.30;;;;;;;;;;4969511;28;20063;-64
2023/01/12 07:54:42;;;;;;;3.75;1.70;;;;;;;;;;4969766;28;20055;-64
2023/01/12 07:57:12;;;;;;;2.72;1.65;;;;;;;;;;4969409;28;20042;-64
2023/01/12 07:59:42;;;;;;;2.83;1.20;;;;;;;;;;4969353;28;20058;-64
2023/01/12 08:02:16;;;;;;;3.92;1.42;;;;;;;;;;4969531;28;20073;-64
2023/01/12 08:04:47;;;;;;;9.90;1.88;;;;;;;;;;4969594;28;20061;-64
2023/01/12 08:07:17;;;;;;;6.43;1.73;;;;;;;;;;5010210;28;20056;-64
2023/01/12 08:09:47;;;;;;;5.97;2.10;;;;;;;;;;4992249;28;20057;-63
2023/01/12 08:12:16;;;;;;;3.65;1.73;;;;;;;;;;5008257;28;20058;-64
2023/01/12 08:14:46;;;;;;;4.95;2.65;;;;;;;;;;5008443;28;20133;-63
2023/01/12 08:17:21;;;;;;;4.90;1.92;;;;;;;;;;5008651;28;20537;-65
2023/01/12 08:20:09;;;;;;;5.22;1.73;;;;;;;;;;5008503;28;20045;-64
2023/01/12 08:22:43;;;;;;;3.78;1.67;;;;;;;;;;5008112;28;20061;-64
2023/01/12 08:25:17;;;;;;;11.52;1.90;;;;;;;;;;4959643;28;20049;-63
2023/01/12 08:27:51;;;;;;;3.05;1.42;;;;;;;;;;4973481;28;20060;-64
2023/01/12 08:30:24;;;;;;;3.45;1.50;;;;;;;;;;5028042;28;20046;-63
2023/01/12 08:33:00;;;;;;;3.53;2.13;;;;;;;;;;5028089;28;20057;-64
2023/01/12 08:35:33;;;;;;;2.47;1.38;;;;;;;;;;5028147;28;20080;-64
2023/01/12 08:38:04;;;;;;;3.85;1.60;;;;;;;;;;4988294;28;20050;-64
2023/01/12 08:46:11;;;;;;;3.70;1.65;;;;;;;;;;4988536;28;20496;-64
2023/01/12 08:48:42;;;;;;;6.18;1.52;;;;;;;;;;4937678;28;20439;-64
2023/01/12 08:51:12;;;;;;;4.65;1.50;;;;;;;;;;4969017;28;20055;-64
2023/01/12 08:53:42;;;;;;;5.40;1.80;;;;;;;;;;4920946;28;20069;-64
2023/01/12 08:56:12;;;;;;;3.25;1.58;;;;;;;;;;4969326;28;20054;-64
2023/01/12 08:58:42;;;;;;;3.50;1.65;;;;;;;;;;4968971;28;20050;-64
2023/01/12 09:01:15;;;;;;;7.55;1.92;;;;;;;;;;4986963;28;20054;-63
2023/01/12 09:03:47;;;;;;;4.03;1.70;;;;;;;;;;4992215;28;20061;-64
2023/01/12 09:06:20;;;;;;;4.82;1.40;;;;;;;;;;4992083;28;20054;-64
2023/01/12 09:09:02;;;;;;;2.60;1.30;;;;;;;;;;4959413;28;20043;-64
2023/01/12 09:11:32;;;;;;;3.17;1.45;;;;;;;;;;4959353;28;20414;-64
2023/01/12 09:14:03;;;;;;;3.55;1.52;;;;;;;;;;4943538;28;20055;-64
2023/01/12 09:16:34;;;;;;;6.38;1.70;;;;;;;;;;5025202;28;20049;-64
2023/01/12 09:19:05;;;;;;;3.38;1.45;;;;;;;;;;5031201;28;20057;-64
2023/01/12 09:21:40;;;;;;;3.72;1.33;;;;;;;;;;5031073;28;20161;-64
2023/01/12 09:24:13;;;;;;;6.28;1.70;;;;;;;;;;5031056;28;20053;-64
2023/01/12 09:26:45;;;;;;;5.90;1.70;;;;;;;;;;5072333;28;20067;-64
2023/01/12 09:29:15;;;;;;;7.78;1.67;;;;;;;;;;5093943;28;20103;-64
2023/01/12 09:31:46;;;;;;;3.33;1.83;;;;;;;;;;5093210;28;20044;-64
2023/01/12 09:34:16;;;;;;;5.40;2.45;;;;;;;;;;5057713;28;20419;-64
2023/01/12 09:36:47;;;;;;;5.78;2.33;;;;;;;;;;5093402;28;20511;-64
2023/01/12 09:39:17;;;;;;;11.13;2.60;;;;;;;;;;5041205;28;20412;-64
2023/01/12 09:47:53;;;;;;;4.25;1.85;;;;;;;;;;5050379;28;20057;-65
2023/01/12 09:50:33;;;;;;;4.97;1.75;;;;;;;;;;5050387;28;20057;-64
2023/01/12 09:53:20;;;;;;;6.75;2.15;;;;;;;;;;5050440;28;20067;-64
2023/01/12 09:56:26;;;;;;;3.40;1.85;;;;;;;;;;5050527;28;20064;-64
2023/01/12 09:58:59;;;;;;;4.53;1.88;;;;;;;;;;5050469;28;20049;-64
2023/01/12 10:01:29;;;;;;;4.47;1.60;;;;;;;;;;5033480;28;20532;-65
2023/01/12 10:04:02;;;;;;;4.95;1.52;;;;;;;;;;5050256;28;20086;-65
2023/01/12 10:06:35;;;;;;;4.88;2.13;;;;;;;;;;5050164;28;20555;-64
2023/01/12 10:09:13;;;;;;;4.10;1.67;;;;;;;;;;5050253;28;20057;-64
2023/01/12 10:11:49;;;;;;;4.78;1.60;;;;;;;;;;5049617;28;20045;-64
2023/01/12 10:14:31;;;;;;;5.50;1.60;;;;;;;;;;5016234;28;20591;-64
2023/01/12 10:17:14;;;;;;;5.10;1.83;;;;;;;;;;5049765;28;20057;-64
2023/01/12 10:20:08;;;;;;;5.07;2.05;;;;;;;;;;5049895;28;20401;-64
2023/01/12 10:22:46;;;;;;;3.75;2.25;;;;;;;;;;5033563;28;20057;-64
2023/01/12 10:25:16;;;;;;;;;;;;;;;;;;5019351;28;20060;-64
2023/01/12 10:27:49;;;;;;;8.35;2.00;;;;;;;;;;5050041;28;19920;-65
2023/01/12 10:30:32;;;;;;;3.53;1.70;;;;;;;;;;5052217;28;20041;-65
2023/01/12 10:33:17;;;;;;;7.47;1.90;;;;;;;;;;5052126;28;20048;-64
2023/01/12 10:36:07;;;;;;;5.85;1.80;;;;;;;;;;5033295;28;20068;-65
2023/01/12 10:39:00;;;;;;;7.55;1.95;;;;;;;;;;5052211;28;20041;-65
2023/01/12 10:41:33;;;;;;;3.95;1.63;;;;;;;;;;5033142;28;20516;-64
2023/01/12 10:44:05;;;;;;;5.30;1.45;;;;;;;;;;5051804;28;20053;-63
2023/01/12 10:46:36;;;;;;;7.97;1.70;;;;;;;;;;5016878;28;20052;-64
2023/01/12 10:49:19;;;;;;;5.03;1.70;;;;;;;;;;5051831;28;20056;-65
2023/01/12 10:52:14;;;;;;;5.13;1.42;;;;;;;;;;5032826;28;20056;-64
2023/01/12 10:54:48;;;;;;;4.95;1.50;;;;;;;;;;4970717;28;20057;-64
2023/01/12 10:57:23;;;;;;;5.70;1.58;;;;;;;;;;4922665;28;20074;-64
2023/01/12 11:00:01;;;;;;;5.50;1.50;;;;;;;;;;4954622;28;20057;-64
2023/01/12 11:02:44;;;;;;;7.82;1.70;;;;;;;;;;4970406;28;20537;-64
2023/01/12 11:05:37;;;;;;;4.07;1.40;;;;;;;;;;4970440;28;20055;-64
2023/01/12 11:08:26;;;;;;;3.05;1.50;;;;;;;;;;4970630;28;20058;-64
2023/01/12 11:10:57;;;;;;;1.55;1.00;;;;;;;;;;4970259;28;20545;-65
2023/01/12 11:13:36;;;;;;;3.45;1.20;;;;;;;;;;4970510;28;20559;-64
2023/01/12 11:16:23;;;;;;;2.60;1.10;;;;;;;;;;4970506;28;20503;-66
2023/01/12 11:19:15;;;;;;;4.28;1.50;;;;;;;;;;4970460;28;20062;-65
2023/01/12 11:21:51;;;;;;;7.72;1.52;;;;;;;;;;4923488;28;20120;-65
2023/01/12 11:24:36;;;;;;;4.28;1.30;;;;;;;;;;4937810;28;20062;-65
2023/01/12 11:27:26;;;;;;;7.03;1.80;;;;;;;;;;4970198;28;20043;-65
2023/01/12 11:30:01;;;;;;;4.55;1.83;;;;;;;;;;4970301;28;20061;-65
2023/01/12 11:32:36;;;;;;;5.95;1.52;;;;;;;;;;5028500;28;20049;-64
2023/01/12 11:35:17;;;;;;;6.72;1.73;;;;;;;;;;5051086;28;20048;-64
2023/01/12 11:37:48;;;;;;;3.75;2.17;;;;;;;;;;5050931;28;20037;-64
2023/01/12 11:40:30;;;;;;;7.30;1.63;;;;;;;;;;5051142;28;20613;-64
2023/01/12 11:43:54;;;;;;;4.18;1.65;;;;;;;;;;5050827;28;20049;-64
2023/01/12 11:46:34;;;;;;;3.78;1.50;;;;;;;;;;4937502;28;20063;-64
2023/01/12 11:49:13;;;;;;;4.50;1.60;;;;;;;;;;4969799;28;20085;-65
2023/01/12 11:51:43;;;;;;;;;;;;;;;;;;4937804;28;20055;-64
2023/01/12 11:54:16;;;;;;;2.83;1.63;;;;;;;;;;4987696;28;19921;-64
2023/01/12 11:57:01;;;;;;;4.50;1.80;;;;;;;;;;4972315;28;20434;-64
2023/01/12 12:00:16;;;;;;;4.22;1.35;;;;;;;;;;4989029;28;20086;-65
2023/01/12 12:03:05;;;;;;;4.38;1.73;;;;;;;;;;4989052;28;20069;-65
2023/01/12 12:06:01;;;;;;;4.47;1.65;;;;;;;;;;4989057;28;20054;-65
2023/01/12 12:09:10;;;;;;;3.50;1.52;;;;;;;;;;4989071;28;20119;-64
2023/01/12 12:12:15;;;;;;;3.13;1.30;;;;;;;;;;4972343;28;20062;-65
2023/01/12 12:15:15;;;;;;;3.08;1.20;;;;;;;;;;4931275;29;20531;-65
2023/01/12 12:17:52;;;;;;;3.97;1.52;;;;;;;;;;4931295;29;20055;-64
2023/01/12 12:20:52;;;;;;;3.33;1.30;;;;;;;;;;4915606;29;20062;-64
2023/01/12 12:23:25;;;;;;;3.17;1.08;;;;;;;;;;4932264;28;20093;-65
2023/01/12 12:26:16;;;;;;;2.72;1.30;;;;;;;;;;4975672;28;20057;-65
2023/01/12 12:29:20;;;;;;;2.90;1.10;;;;;;;;;;5008355;28;20053;-64
2023/01/12 12:32:19;;;;;;;2.90;1.10;;;;;;;;;;4959796;28;20050;-64
2023/01/12 12:34:59;;;;;;;2.88;1.10;;;;;;;;;;4950087;28;20067;-65
2023/01/12 12:38:05;;;;;;;2.78;0.93;;;;;;;;;;4953494;28;20051;-64
2023/01/12 12:46:30;;;;;;;2.15;0.85;;;;;;;;;;4953604;28;20051;-64
2023/01/12 12:49:03;;;;;;;2.83;2.33;;;;;;;;;;4953698;28;20047;-65
2023/01/12 12:51:36;;;;;;;5.00;4.32;;;;;;;;;;4981895;28;20049;-65
2023/01/12 12:54:15;;;;;;;2.35;1.70;;;;;;;;;;5031687;28;20061;-65
2023/01/12 12:56:47;;;;;;;1.95;1.40;;;;;;;;;;5031575;28;20066;-62
2023/01/12 12:59:32;;;;;;;2.72;0.90;;;;;;;;;;5031625;28;20100;-63
2023/01/12 13:02:03;;;;;;;1.48;0.70;;;;;;;;;;5031653;28;20049;-66
2023/01/12 13:04:45;;;;;;;2.78;0.80;;;;;;;;;;5031730;28;20068;-66
2023/01/12 13:07:20;;;;;;;1.90;0.98;;;;;;;;;;5031353;28;20053;-66
2023/01/12 13:09:51;;;;;;;2.65;0.90;;;;;;;;;;5031565;28;20049;-66
2023/01/12 13:12:34;;;;;;;2.65;1.10;;;;;;;;;;5066794;28;20053;-63
2023/01/12 13:15:28;;;;;;;2.55;1.10;;;;;;;;;;5073897;28;20047;-64
2023/01/12 13:17:59;;;;;;;5.05;0.90;;;;;;;;;;5072314;28;20044;-65
2023/01/12 13:20:48;;;;;;;3.15;0.82;;;;;;;;;;5071053;28;20056;-64
2023/01/12 13:23:43;;;;;;;1.90;0.82;;;;;;;;;;5073289;28;20048;-64
2023/01/12 13:26:46;;;;;;;1.65;0.88;;;;;;;;;;5071394;28;20427;-65
2023/01/12 13:29:28;;;;;;;0.93;0.70;;;;;;;;;;5011217;28;20525;-65
2023/01/12 13:32:35;;;;;;;2.78;0.80;;;;;;;;;;4962648;28;20064;-64
2023/01/12 13:35:26;;;;;;;1.48;0.70;;;;;;;;;;4978649;28;20080;-66
2023/01/12 13:38:02;;;;;;;2.67;0.70;;;;;;;;;;5011333;28;20501;-65
2023/01/12 13:40:32;;;;;;;2.17;0.70;;;;;;;;;;5010949;28;20390;-65
2023/01/12 13:43:15;;;;;;;2.97;1.05;;;;;;;;;;5010990;28;20042;-63
2023/01/12 13:46:04;;;;;;;4.03;1.00;;;;;;;;;;4962537;28;20161;-66
2023/01/12 13:48:35;;;;;;;1.60;0.93;;;;;;;;;;4978620;28;21032;-67
2023/01/12 13:51:29;;;;;;;1.23;0.70;;;;;;;;;;4977988;28;20538;-64
2023/01/12 13:54:00;;;;;;;2.08;0.70;;;;;;;;;;4978642;28;20057;-65
2023/01/12 13:56:31;;;;;;;1.73;0.80;;;;;;;;;;5010845;28;20149;-64
2023/01/12 13:59:05;;;;;;;3.65;1.30;;;;;;;;;;4962356;28;20164;-64
2023/01/12 14:01:38;;;;;;;2.60;1.00;;;;;;;;;;5010643;28;20054;-64
2023/01/12 14:04:17;;;;;;;4.75;0.75;;;;;;;;;;4952000;28;20044;-65
2023/01/12 14:07:36;;;;;;;2.00;0.80;;;;;;;;;;5067550;28;20497;-65
2023/01/12 14:10:20;;;;;;;1.95;0.60;;;;;;;;;;5056947;28;20064;-64
2023/01/12 14:12:53;;;;;;;;;;;;;;;;;;5052178;28;20055;-65
2023/01/12 14:18:40;;;;;;;3.13;0.75;;;;;;;;;;5069583;28;20049;-64
2023/01/12 14:21:31;;;;;;;3.17;1.08;;;;;;;;;;5060492;28;20060;-65
2023/01/12 14:24:14;;;;;;;4.80;1.30;;;;;;;;;;5016810;28;20056;-69
2023/01/12 14:26:44;;;;;;;1.83;0.93;;;;;;;;;;5056339;28;20052;-67
2023/01/12 14:29:14;;;;;;;2.83;0.70;;;;;;;;;;5049606;28;20053;-71
2023/01/12 14:31:50;;;;;;;4.45;0.98;;;;;;;;;;5049617;28;20045;-67
2023/01/12 14:34:31;;;;;;;2.67;1.00;;;;;;;;;;5049881;28;20087;-70
2023/01/12 14:37:04;;;;;;;2.20;0.93;;;;;;;;;;5052378;28;20658;-67
2023/01/12 14:39:40;;;;;;;1.90;0.60;;;;;;;;;;5000229;28;20056;-67
2023/01/12 14:48:23;;;;;;;3.05;0.90;;;;;;;;;;4995174;28;20058;-66
2023/01/12 14:51:01;;;;;;;2.95;0.80;;;;;;;;;;4964575;28;20560;-65
2023/01/12 14:53:38;;;;;;;1.25;0.70;;;;;;;;;;4962763;28;20410;-66
2023/01/12 14:56:14;;;;;;;1.20;0.68;;;;;;;;;;5000918;28;20081;-66
2023/01/12 14:58:46;;;;;;;1.77;0.63;;;;;;;;;;4922863;28;20125;-67
2023/01/12 15:01:34;;;;;;;0.82;0.50;;;;;;;;;;5018410;28;20049;-65
2023/01/12 15:04:13;;;;;;;1.85;0.90;;;;;;;;;;4980338;28;20061;-64
2023/01/12 15:06:44;;;;;;;1.75;0.60;;;;;;;;;;5028982;28;20506;-64
2023/01/12 15:09:36;;;;;;;1.92;0.40;;;;;;;;;;4937389;28;20510;-65
2023/01/12 15:12:31;;;;;;;0.30;0.30;;;;;;;;;;4980685;28;20050;-65
2023/01/12 15:15:15;;;;;;;0.40;0.30;;;;;;;;;;4923218;28;20696;-64
2023/01/12 15:26:26;;;;;;;0.63;0.40;;;;;;;;;;5022629;28;20480;-64
2023/01/12 15:28:55;;;;;;;1.45;0.70;;;;;;;;;;4999267;28;20060;-63
2023/01/12 15:31:27;;;;;;;1.02;0.50;;;;;;;;;;5048603;28;20175;-65
2023/01/12 15:33:58;;;;;;;0.70;0.40;;;;;;;;;;5048743;28;20433;-64
2023/01/12 15:36:28;;;;;;;0.80;0.40;;;;;;;;;;5028222;28;20056;-65
2023/01/12 15:38:58;;;;;;;0.93;0.50;;;;;;;;;;5015172;28;20430;-65
2023/01/12 15:44:22;;;;;;;0.60;0.40;;;;;;;;;;5047530;28;20106;-66
2023/01/12 15:46:52;;;;;;;1.38;0.50;;;;;;;;;;5057181;28;20059;-65
2023/01/12 15:49:23;;;;;;;1.10;0.50;;;;;;;;;;5068061;28;20052;-64
2023/01/12 15:51:53;;;;;;;1.10;0.50;;;;;;;;;;5067365;28;20071;-66
2023/01/12 15:54:23;;;;;;;1.27;0.40;;;;;;;;;;5067645;28;20087;-65
2023/01/12 15:56:56;;;;;;;2.22;0.60;;;;;;;;;;5034628;28;20562;-65
2023/01/12 15:59:26;;;;;;;2.15;0.60;;;;;;;;;;5047873;28;20045;-66
2023/01/12 16:01:55;;;;;;;1.95;0.40;;;;;;;;;;4999133;28;20062;-67
2023/01/12 16:04:25;;;;;;;0.85;0.60;;;;;;;;;;5011321;28;20053;-67
2023/01/12 16:07:12;;;;;;;1.45;0.50;;;;;;;;;;5027818;28;20497;-66
2023/01/12 16:09:46;;;;;;;3.00;0.47;;;;;;;;;;4978466;28;21062;-67
2023/01/12 16:12:18;;;;;;;2.63;0.47;;;;;;;;;;5026751;28;20061;-66
2023/01/12 16:14:48;;;;;;;1.73;0.47;;;;;;;;;;5027789;28;20148;-66
2023/01/12 16:17:19;;;;;;;0.88;0.32;;;;;;;;;;4978960;28;20584;-68
2023/01/12 16:19:49;;;;;;;0.28;0.20;;;;;;;;;;5027694;28;20065;-67
2023/01/12 16:22:25;;;;;;;0.70;0.50;;;;;;;;;;5027639;28;20049;-66
2023/01/12 16:24:56;;;;;;;0.65;0.20;;;;;;;;;;5011440;28;20060;-67
2023/01/12 16:27:27;;;;;;;0.47;0.30;;;;;;;;;;5027752;28;20060;-67
2023/01/12 16:29:57;;;;;;;0.63;0.30;;;;;;;;;;4993881;28;20053;-67
2023/01/12 16:32:27;;;;;;;1.02;0.40;;;;;;;;;;5026903;28;20053;-66
2023/01/12 16:34:58;;;;;;;2.42;0.60;;;;;;;;;;5034009;28;20051;-67
2023/01/12 16:37:31;;;;;;;0.68;0.40;;;;;;;;;;5062405;28;20061;-67
2023/01/12 16:40:02;;;;;;;0.95;0.40;;;;;;;;;;5069769;28;20064;-66
2023/01/12 16:42:33;;;;;;;1.50;0.80;;;;;;;;;;5070268;28;20048;-66
2023/01/12 16:45:03;;;;;;;1.00;0.63;;;;;;;;;;5069768;28;20044;-66
2023/01/12 16:47:33;;;;;;;1.08;0.50;;;;;;;;;;5069738;28;20048;-65